createdAt,value
2019-03-24T00:04:21.119Z,150.93
2019-03-24T00:09:35.194Z,123.33
2019-03-24T00:14:41.095Z,110.20
2019-03-24T00:19:47.521Z,177.55
2019-03-24T00:24:53.361Z,127.27
2019-03-24T00:29:59.114Z,99.27
2019-03-24T00:35:06.721Z,98.67
2019-03-24T00:40:12.787Z,114.17
2019-03-24T00:45:20.649Z,81.53
2019-03-24T00:50:26.649Z,78.15
2019-03-24T00:55:32.367Z,82.08
2019-03-24T01:00:48.857Z,79.43
2019-03-24T01:05:54.671Z,78.37
2019-03-24T01:11:00.488Z,88.40
2019-03-24T01:16:06.923Z,89.87
2019-03-24T01:21:12.962Z,101.47
2019-03-24T01:26:18.799Z,107.93
2019-03-24T01:31:25.787Z,85.15
2019-03-24T01:36:31.625Z,73.43
2019-03-24T01:41:37.846Z,76.30
2019-03-24T01:46:43.851Z,80.77
2019-03-24T01:51:49.628Z,71.60
2019-03-24T01:56:57.091Z,67.62
2019-03-24T02:02:03.214Z,69.32
2019-03-24T02:07:08.945Z,82.57
2019-03-24T02:12:14.805Z,81.85
2019-03-24T02:17:20.864Z,79.82
2019-03-24T02:22:26.690Z,64.03
2019-03-24T02:27:32.448Z,63.25
2019-03-24T02:32:38.313Z,61.57
2019-03-24T02:37:44.064Z,63.48
2019-03-24T02:42:49.998Z,59.88
2019-03-24T02:47:55.722Z,62.43
2019-03-24T02:53:01.755Z,61.25
2019-03-24T02:58:07.814Z,58.55
2019-03-24T03:03:13.634Z,66.50
2019-03-24T03:08:19.643Z,63.65
2019-03-24T03:13:25.403Z,56.88
2019-03-24T03:18:31.235Z,60.52
2019-03-24T03:23:36.987Z,56.23
2019-03-24T03:28:42.732Z,55.60
2019-03-24T03:33:49.056Z,57.45
2019-03-24T03:38:54.973Z,56.53
2019-03-24T03:44:00.740Z,57.60
2019-03-24T03:49:06.600Z,63.08
2019-03-24T03:54:12.487Z,79.07
2019-03-24T03:59:18.323Z,80.03
2019-03-24T04:04:24.169Z,67.42
2019-03-24T04:09:29.984Z,64.20
2019-03-24T04:14:35.758Z,59.30
2019-03-24T04:19:41.581Z,58.87
2019-03-24T04:24:47.329Z,60.45
2019-03-24T04:29:53.090Z,51.68
2019-03-24T04:34:59.037Z,53.65
2019-03-24T04:40:04.975Z,53.23
2019-03-24T04:45:11.008Z,53.60
2019-03-24T04:50:16.820Z,55.28
2019-03-24T04:55:22.689Z,52.38
2019-03-24T05:00:39.807Z,49.90
2019-03-24T05:05:46.261Z,42.40
2019-03-24T05:10:53.083Z,40.03
2019-03-24T05:15:58.846Z,40.60
2019-03-24T05:21:04.780Z,41.90
2019-03-24T05:26:10.613Z,41.50
2019-03-24T05:31:16.654Z,39.20
2019-03-24T05:36:22.722Z,39.40
2019-03-24T05:41:28.555Z,42.03
2019-03-24T05:46:34.298Z,43.17
2019-03-24T05:51:40.058Z,43.77
2019-03-24T05:56:46.113Z,44.07
2019-03-24T06:01:51.872Z,44.40
2019-03-24T06:06:57.608Z,38.57
2019-03-24T06:12:03.462Z,38.15
2019-03-24T06:17:09.326Z,40.23
2019-03-24T06:22:15.152Z,42.62
2019-03-24T06:27:20.882Z,40.87
2019-03-24T06:32:26.982Z,35.90
2019-03-24T06:37:32.842Z,38.00
2019-03-24T06:42:38.697Z,38.03
2019-03-24T06:47:45.202Z,38.40
2019-03-24T06:52:51.296Z,36.45
2019-03-24T06:57:57.428Z,38.95
2019-03-24T07:03:03.657Z,53.50
2019-03-24T07:08:09.413Z,58.70
2019-03-24T07:13:15.202Z,54.05
2019-03-24T07:18:20.992Z,58.92
2019-03-24T07:23:26.742Z,50.85
2019-03-24T07:28:32.752Z,50.35
2019-03-24T07:33:38.546Z,46.70
2019-03-24T07:38:44.680Z,52.97
2019-03-24T07:43:50.546Z,46.25
2019-03-24T07:48:56.297Z,46.37
2019-03-24T07:54:02.057Z,44.35
2019-03-24T07:59:07.955Z,63.15
2019-03-24T08:04:13.809Z,58.93
2019-03-24T08:09:20.645Z,45.30
2019-03-24T08:14:26.425Z,47.03
2019-03-24T08:19:32.158Z,50.03
2019-03-24T08:24:38.015Z,53.30
2019-03-24T08:29:43.905Z,52.97
2019-03-24T08:34:50.202Z,52.40
2019-03-24T08:39:56.478Z,49.65
2019-03-24T08:45:03.221Z,48.30
2019-03-24T08:50:09.298Z,50.40
2019-03-24T08:55:15.025Z,51.27
2019-03-24T09:00:30.130Z,50.75
2019-03-24T09:05:29.405Z,48.33
2019-03-24T09:10:35.382Z,49.35
2019-03-24T09:15:43.148Z,48.73
2019-03-24T09:20:48.675Z,49.77
2019-03-24T09:25:54.468Z,50.83
2019-03-24T09:31:00.752Z,48.78
2019-03-24T09:36:08.421Z,47.95
2019-03-24T09:41:14.196Z,48.40
2019-03-24T09:46:20.003Z,47.48
2019-03-24T09:51:25.846Z,47.60
2019-03-24T09:56:31.611Z,47.30
2019-03-24T10:01:38.467Z,45.67
2019-03-24T10:06:44.229Z,45.43
2019-03-24T10:11:52.197Z,42.55
2019-03-24T10:16:58.937Z,45.17
2019-03-24T10:22:04.775Z,43.03
2019-03-24T10:27:10.667Z,40.40
2019-03-24T10:32:17.626Z,41.33
2019-03-24T10:37:23.454Z,41.13
2019-03-24T10:42:29.455Z,38.33
2019-03-24T10:47:35.303Z,41.10
2019-03-24T10:52:41.594Z,37.70
2019-03-24T10:57:48.550Z,37.25
2019-03-24T11:02:54.434Z,37.85
2019-03-24T11:08:01.322Z,34.85
2019-03-24T11:13:07.216Z,39.75
2019-03-24T11:18:13.044Z,34.50
2019-03-24T11:23:19.369Z,34.08
2019-03-24T11:28:25.292Z,33.90
2019-03-24T11:33:31.610Z,32.58
2019-03-24T11:38:38.356Z,34.23
2019-03-24T11:43:44.274Z,34.08
2019-03-24T11:48:50.358Z,38.00
2019-03-24T11:53:56.529Z,44.73
2019-03-24T11:59:02.662Z,43.83
2019-03-24T12:04:10.411Z,41.37
2019-03-24T12:09:16.285Z,41.33
2019-03-24T12:14:22.110Z,39.23
2019-03-24T12:19:29.214Z,40.03
2019-03-24T12:24:35.094Z,41.58
2019-03-24T12:29:41.571Z,41.50
2019-03-24T12:34:47.328Z,40.33
2019-03-24T12:39:53.202Z,42.65
2019-03-24T12:44:59.081Z,42.73
2019-03-24T12:50:09.318Z,43.15
2019-03-24T12:55:15.131Z,42.33
2019-03-24T13:00:34.265Z,37.20
2019-03-24T13:05:40.192Z,35.83
2019-03-24T13:10:46.973Z,35.68
2019-03-24T13:15:53.959Z,35.00
2019-03-24T13:20:59.897Z,31.27
2019-03-24T13:26:06.268Z,29.93
2019-03-24T13:31:12.098Z,27.07
2019-03-24T13:36:17.910Z,27.87
2019-03-24T13:41:23.724Z,28.92
2019-03-24T13:46:30.144Z,29.05
2019-03-24T13:51:36.044Z,24.40
2019-03-24T13:56:41.832Z,27.67
2019-03-24T14:01:47.932Z,23.77
2019-03-24T14:06:54.110Z,23.67
2019-03-24T14:12:00.040Z,23.12
2019-03-24T14:17:05.846Z,22.73
2019-03-24T14:22:11.699Z,21.07
2019-03-24T14:27:18.492Z,21.02
2019-03-24T14:32:24.351Z,22.30
2019-03-24T14:37:31.230Z,19.07
2019-03-24T14:42:37.019Z,17.80
2019-03-24T14:47:42.932Z,18.37
2019-03-24T14:52:48.689Z,19.67
2019-03-24T14:57:54.795Z,20.97
2019-03-24T15:03:00.699Z,24.30
2019-03-24T15:08:07.523Z,21.70
2019-03-24T15:13:13.468Z,22.40
2019-03-24T15:18:19.341Z,23.75
2019-03-24T15:23:25.202Z,24.00
2019-03-24T15:28:30.972Z,24.13
2019-03-24T15:33:36.990Z,22.58
2019-03-24T15:38:42.835Z,22.80
2019-03-24T15:43:49.122Z,25.05
2019-03-24T15:48:55.418Z,22.75
2019-03-24T15:54:01.225Z,20.75
2019-03-24T15:59:07.076Z,15.75
2019-03-24T16:04:13.003Z,16.73
2019-03-24T16:09:18.949Z,18.23
2019-03-24T16:14:24.857Z,15.93
2019-03-24T16:19:30.717Z,15.38
2019-03-24T16:24:36.534Z,15.67
2019-03-24T16:29:42.282Z,12.20
2019-03-24T16:34:48.299Z,10.90
2019-03-24T16:39:54.073Z,11.53
2019-03-24T16:45:00.851Z,12.27
2019-03-24T16:50:08.705Z,16.27
2019-03-24T16:55:14.782Z,12.00
2019-03-24T17:00:20.700Z,9.33
2019-03-24T17:05:26.594Z,10.55
2019-03-24T17:10:32.485Z,9.68
2019-03-24T17:15:38.364Z,8.88
2019-03-24T17:20:44.230Z,11.87
2019-03-24T17:25:50.222Z,11.33
2019-03-24T17:30:56.167Z,12.53
2019-03-24T17:36:02.446Z,12.37
2019-03-24T17:41:08.223Z,14.55
2019-03-24T17:46:14.055Z,11.33
2019-03-24T17:51:19.786Z,13.93
2019-03-24T17:56:25.666Z,14.18
2019-03-24T18:01:31.534Z,14.10
2019-03-24T18:06:37.378Z,12.98
2019-03-24T18:11:43.167Z,14.47
2019-03-24T18:16:48.945Z,13.48
2019-03-24T18:21:54.667Z,12.70
2019-03-24T18:27:00.573Z,11.17
2019-03-24T18:32:06.745Z,12.17
2019-03-24T18:37:12.562Z,12.07
2019-03-24T18:42:18.293Z,11.87
2019-03-24T18:47:24.168Z,10.40
2019-03-24T18:52:29.956Z,10.17
2019-03-24T18:57:35.917Z,10.93
2019-03-24T19:02:41.681Z,11.13
2019-03-24T19:07:47.850Z,10.60
2019-03-24T19:12:53.740Z,9.30
2019-03-24T19:17:59.489Z,11.88
2019-03-24T19:23:05.259Z,8.33
2019-03-24T19:28:11.091Z,15.10
2019-03-24T19:33:16.867Z,13.98
2019-03-24T19:38:23.759Z,15.68
2019-03-24T19:43:29.667Z,22.30
2019-03-24T19:48:35.424Z,11.68
2019-03-24T19:53:41.207Z,12.20
2019-03-24T19:58:47.344Z,10.43
2019-03-24T20:03:53.264Z,12.73
2019-03-24T20:08:59.092Z,11.73
2019-03-24T20:14:04.976Z,11.67
2019-03-24T20:19:10.877Z,9.53
2019-03-24T20:24:16.743Z,10.65
2019-03-24T20:29:22.748Z,9.08
2019-03-24T20:34:31.012Z,7.72
2019-03-24T20:39:36.777Z,10.65
2019-03-24T20:44:44.827Z,8.05
2019-03-24T20:49:51.700Z,7.72
2019-03-24T20:54:58.022Z,16.97
2019-03-24T21:00:06.244Z,11.73
2019-03-24T21:05:14.568Z,11.22
2019-03-24T21:10:20.786Z,15.35
2019-03-24T21:15:26.688Z,8.77
2019-03-24T21:20:32.674Z,11.25
2019-03-24T21:25:38.983Z,10.80
2019-03-24T21:30:44.807Z,9.53
2019-03-24T21:35:51.806Z,10.30
2019-03-24T21:40:57.778Z,10.23
2019-03-24T21:46:04.646Z,8.05
2019-03-24T21:51:10.974Z,12.57
2019-03-24T21:56:16.930Z,13.08
2019-03-24T22:01:23.200Z,19.35
2019-03-24T22:06:29.051Z,13.58
2019-03-24T22:11:35.208Z,14.80
2019-03-24T22:16:41.548Z,12.10
2019-03-24T22:21:47.756Z,10.32
2019-03-24T22:26:54.580Z,13.33
2019-03-24T22:32:00.472Z,10.48
2019-03-24T22:37:15.514Z,11.18
2019-03-24T22:42:14.018Z,10.65
2019-03-24T22:47:19.955Z,11.90
2019-03-24T22:52:25.797Z,10.57
2019-03-24T22:57:32.663Z,10.83
2019-03-24T23:02:38.815Z,10.13
2019-03-24T23:07:44.581Z,13.22
2019-03-24T23:12:50.399Z,14.15
2019-03-24T23:17:56.273Z,11.77
2019-03-24T23:23:02.141Z,11.90
2019-03-24T23:28:08.469Z,13.95
2019-03-24T23:33:14.409Z,11.80
2019-03-24T23:38:20.502Z,17.27
2019-03-24T23:43:26.317Z,16.82
2019-03-24T23:48:32.062Z,13.37
2019-03-24T23:53:37.812Z,14.50
2019-03-24T23:58:43.893Z,15.60
